Terminal Aerodrome Forecast
Issued by NWS Twin Cities, MN

Home | Current Version | Previous Version | Text Only | Print | Product List | Glossary On
Versions: 1 2 3 4 5 6 7 8 9 10 11 12 13 14
588
FTUS43 KMPX 071139
TAFSTC
TAF
KSTC 071139Z 0712/0812 26015G22KT P6SM SCT025 OVC040
      TEMPO 0712/0715 BKN025
     FM071500 28018G26KT P6SM OVC030
     FM072100 30023G32KT 2SM -SN BLSN OVC015
     FM080600 32024G34KT 1SM -SN BLSN OVC012=

USA.gov is the U.S. government's official web portal to all federal, state and local government web resources and services.